createdAt,value
2022-10-13T00:01:09.237Z,7.85
2022-10-13T00:03:37.020Z,7.65
2022-10-13T00:06:10.100Z,7.00
2022-10-13T00:08:37.244Z,7.78
2022-10-13T00:11:14.020Z,7.75
2022-10-13T00:13:41.013Z,6.95
2022-10-13T00:16:08.068Z,8.25
2022-10-13T00:18:34.543Z,7.43
2022-10-13T00:21:01.263Z,6.95
2022-10-13T00:25:54.007Z,6.85
2022-10-13T00:28:20.618Z,6.82
2022-10-13T00:30:47.373Z,6.50
2022-10-13T00:35:47.991Z,6.97
2022-10-13T00:38:15.899Z,7.13
2022-10-13T00:40:46.582Z,6.40
2022-10-13T00:43:24.635Z,6.53
2022-10-13T00:45:51.877Z,6.30
2022-10-13T00:48:23.865Z,6.60
2022-10-13T00:50:51.423Z,6.78
2022-10-13T00:53:21.649Z,7.07
2022-10-13T00:55:49.687Z,7.03
2022-10-13T00:58:19.539Z,6.78
2022-10-13T01:00:49.104Z,6.53
2022-10-13T01:03:15.910Z,6.25
2022-10-13T01:08:10.979Z,7.00
2022-10-13T01:10:55.313Z,6.00
2022-10-13T01:13:38.946Z,6.43
2022-10-13T01:16:24.210Z,6.88
2022-10-13T01:19:27.421Z,8.77
2022-10-13T01:22:31.509Z,6.88
2022-10-13T01:25:06.951Z,6.43
2022-10-13T01:27:57.745Z,7.47
2022-10-13T01:30:24.189Z,6.30
2022-10-13T01:33:18.076Z,7.55
2022-10-13T01:35:56.887Z,7.30
2022-10-13T01:38:42.415Z,7.47
2022-10-13T01:41:19.399Z,6.53
2022-10-13T01:43:55.827Z,6.43
2022-10-13T01:46:26.726Z,5.83
2022-10-13T01:48:56.473Z,6.78
2022-10-13T01:51:25.485Z,6.78
2022-10-13T01:53:52.108Z,7.00
2022-10-13T01:56:18.651Z,6.75
2022-10-13T01:58:46.728Z,6.50
2022-10-13T02:01:36.804Z,6.30
2022-10-13T02:04:17.934Z,5.95
2022-10-13T02:07:06.453Z,6.43
2022-10-13T02:09:48.529Z,6.32
2022-10-13T02:12:30.240Z,6.35
2022-10-13T02:14:58.817Z,6.25
2022-10-13T02:17:27.323Z,6.65
2022-10-13T02:19:55.203Z,5.57
2022-10-13T02:22:26.335Z,6.75
2022-10-13T02:24:53.210Z,6.28
2022-10-13T02:27:20.010Z,5.85
2022-10-13T02:29:55.321Z,6.40
2022-10-13T02:32:22.898Z,6.28
2022-10-13T02:34:49.842Z,5.80
2022-10-13T02:37:16.552Z,6.95
2022-10-13T02:42:09.778Z,5.80
2022-10-13T02:47:03.166Z,5.53
2022-10-13T02:49:29.632Z,5.07
2022-10-13T02:51:56.141Z,6.75
2022-10-13T02:54:22.661Z,6.15
2022-10-13T02:56:49.128Z,6.15
2022-10-13T02:59:15.601Z,5.18
2022-10-13T03:01:42.145Z,5.78
2022-10-13T03:04:09.100Z,5.63
2022-10-13T03:06:35.578Z,5.55
2022-10-13T03:09:02.044Z,6.80
2022-10-13T03:11:28.826Z,5.82
2022-10-13T03:16:21.919Z,6.22
2022-10-13T03:18:48.354Z,5.43
2022-10-13T03:21:15.684Z,5.68
2022-10-13T03:23:42.150Z,8.88
2022-10-13T03:26:08.656Z,5.63
2022-10-13T03:28:35.221Z,5.75
2022-10-13T03:31:07.823Z,6.70
2022-10-13T03:33:34.481Z,5.47
2022-10-13T03:38:29.875Z,6.78
2022-10-13T03:40:56.893Z,5.93
2022-10-13T03:43:23.685Z,5.95
2022-10-13T03:48:28.128Z,6.50
2022-10-13T03:50:55.656Z,7.63
2022-10-13T03:53:22.275Z,6.80
2022-10-13T03:55:52.996Z,5.95
2022-10-13T03:58:20.097Z,6.63
2022-10-13T04:00:46.989Z,6.38
2022-10-13T04:03:13.978Z,6.10
2022-10-13T04:05:40.693Z,6.25
2022-10-13T04:10:33.785Z,6.63
2022-10-13T04:13:02.973Z,6.82
2022-10-13T04:15:29.837Z,7.03
2022-10-13T04:17:56.394Z,7.18
2022-10-13T04:20:23.037Z,6.72
2022-10-13T04:25:16.196Z,7.25
2022-10-13T04:27:42.899Z,6.22
2022-10-13T04:32:40.473Z,6.60
2022-10-13T04:35:07.308Z,6.65
2022-10-13T04:37:33.908Z,6.78
2022-10-13T04:40:12.679Z,6.10
2022-10-13T04:42:48.727Z,7.22
2022-10-13T04:45:23.662Z,6.22
2022-10-13T04:48:10.381Z,6.32
2022-10-13T04:50:44.123Z,6.93
2022-10-13T04:53:19.220Z,6.45
2022-10-13T04:55:46.655Z,6.47
2022-10-13T04:58:13.430Z,6.72
2022-10-13T05:03:32.655Z,6.68
2022-10-13T05:06:03.743Z,7.25
2022-10-13T05:08:34.180Z,7.68
2022-10-13T05:11:11.371Z,7.57
2022-10-13T05:13:39.235Z,6.97
2022-10-13T05:16:15.920Z,7.47
2022-10-13T05:18:43.525Z,9.38
2022-10-13T05:21:24.844Z,7.55
2022-10-13T05:23:56.150Z,8.20
2022-10-13T05:26:29.308Z,9.35
2022-10-13T05:28:57.315Z,8.25
2022-10-13T05:31:27.931Z,8.38
2022-10-13T05:34:01.044Z,7.10
2022-10-13T05:36:56.581Z,8.25
2022-10-13T05:39:41.845Z,8.43
2022-10-13T05:42:22.926Z,7.32
2022-10-13T05:44:56.451Z,8.07
2022-10-13T05:47:37.691Z,7.18
2022-10-13T05:50:10.117Z,7.43
2022-10-13T05:52:52.917Z,8.43
2022-10-13T05:55:40.873Z,7.47
2022-10-13T06:01:02.866Z,8.00
2022-10-13T06:03:44.446Z,7.10
2022-10-13T06:06:27.918Z,7.43
2022-10-13T06:09:15.996Z,8.30
2022-10-13T06:11:54.739Z,8.23
2022-10-13T06:15:14.637Z,8.85
2022-10-13T06:17:21.962Z,8.77
2022-10-13T06:22:43.546Z,7.70
2022-10-13T06:25:29.995Z,8.57
2022-10-13T06:28:03.312Z,8.63
2022-10-13T06:30:33.054Z,8.98
2022-10-13T06:33:06.881Z,8.68
2022-10-13T06:36:01.050Z,8.48
2022-10-13T06:56:44.233Z,8.73
2022-10-13T06:59:29.987Z,8.00
2022-10-13T07:01:59.803Z,8.75
2022-10-13T07:04:30.837Z,8.90
2022-10-13T07:07:07.243Z,9.45
2022-10-13T07:09:47.546Z,7.97
2022-10-13T07:15:29.520Z,9.65
2022-10-13T07:18:30.997Z,9.93
2022-10-13T07:27:12.676Z,10.02
2022-10-13T07:29:41.767Z,14.18
2022-10-13T07:32:11.925Z,11.77
2022-10-13T07:34:41.193Z,10.88
2022-10-13T07:37:13.128Z,11.98
2022-10-13T07:39:45.949Z,13.25
2022-10-13T07:42:17.700Z,14.52
2022-10-13T07:44:55.508Z,13.40
2022-10-13T07:47:42.437Z,15.05
2022-10-13T07:50:20.243Z,14.15
2022-10-13T07:52:57.062Z,12.40
2022-10-13T07:55:24.134Z,12.38
2022-10-13T07:57:53.221Z,13.30
2022-10-13T08:00:30.720Z,13.55
2022-10-13T08:03:40.307Z,12.80
2022-10-13T08:06:19.201Z,14.02
2022-10-13T08:08:52.968Z,14.77
2022-10-13T08:11:32.754Z,14.73
2022-10-13T08:14:02.866Z,12.40
2022-10-13T08:16:36.665Z,11.90
2022-10-13T08:19:05.744Z,13.15
2022-10-13T08:28:05.398Z,13.82
2022-10-13T08:31:09.023Z,14.18
2022-10-13T08:33:36.275Z,13.75
2022-10-13T08:36:34.858Z,12.15
2022-10-13T08:39:49.932Z,10.13
2022-10-13T08:42:24.751Z,13.32
2022-10-13T08:48:24.743Z,12.73
2022-10-13T08:59:00.151Z,15.43
2022-10-13T09:01:58.043Z,14.50
2022-10-13T10:03:58.928Z,13.38
2022-10-13T10:07:06.631Z,14.63
2022-10-13T10:09:48.905Z,12.43
2022-10-13T10:16:41.438Z,14.55
2022-10-13T10:20:00.139Z,13.18
2022-10-13T10:23:30.807Z,13.93
2022-10-13T10:26:14.032Z,13.80
2022-10-13T10:58:51.358Z,13.13
2022-10-13T11:01:27.815Z,12.88
2022-10-13T11:04:40.588Z,14.70
2022-10-13T11:07:42.151Z,14.50
2022-10-13T12:07:32.361Z,10.63
2022-10-13T12:10:05.238Z,10.35
2022-10-13T12:50:16.438Z,6.28
2022-10-13T12:52:48.506Z,6.53
2022-10-13T12:55:19.057Z,7.43
2022-10-13T12:58:18.142Z,8.35
2022-10-13T13:00:47.576Z,8.30
2022-10-13T13:03:40.148Z,6.93
2022-10-13T13:06:39.816Z,7.88
2022-10-13T13:16:41.430Z,7.45
2022-10-13T13:19:37.645Z,6.65
2022-10-13T23:55:01.293Z,18.67
